createdAt,value
2018-06-24T00:00:59.241Z,67.29
2018-06-24T00:03:28.193Z,67.62
2018-06-24T00:05:57.137Z,67.67
2018-06-24T00:08:26.120Z,67.89
2018-06-24T00:10:55.082Z,67.95
2018-06-24T00:13:24.026Z,67.92
2018-06-24T00:15:52.951Z,67.95
2018-06-24T00:18:28.522Z,67.96
2018-06-24T00:20:57.440Z,68.09
2018-06-24T00:23:28.207Z,67.98
2018-06-24T00:25:57.534Z,68.20
2018-06-24T00:28:26.493Z,68.50
2018-06-24T00:30:55.567Z,68.55
2018-06-24T00:33:24.481Z,68.05
2018-06-24T00:35:53.432Z,67.51
2018-06-24T00:38:22.392Z,68.11
2018-06-24T00:40:51.383Z,68.12
2018-06-24T00:43:20.220Z,68.33
2018-06-24T00:45:49.190Z,68.20
2018-06-24T00:48:18.018Z,68.22
2018-06-24T00:50:46.872Z,68.58
2018-06-24T00:53:15.842Z,68.66
2018-06-24T00:55:44.756Z,68.71
2018-06-24T00:58:13.624Z,68.83
2018-06-24T01:00:42.502Z,68.72
2018-06-24T01:03:11.405Z,68.58
2018-06-24T01:05:40.364Z,68.85
2018-06-24T01:08:09.189Z,68.95
2018-06-24T01:10:38.064Z,69.16
2018-06-24T01:13:07.055Z,68.65
2018-06-24T01:15:36.037Z,68.53
2018-06-24T01:18:04.956Z,68.48
2018-06-24T01:20:33.902Z,68.38
2018-06-24T01:23:03.045Z,68.49
2018-06-24T01:25:31.956Z,68.77
2018-06-24T01:28:00.876Z,68.75
2018-06-24T01:30:29.844Z,69.04
2018-06-24T01:32:58.748Z,69.31
2018-06-24T01:35:27.657Z,69.36
2018-06-24T01:37:56.571Z,69.30
2018-06-24T01:40:25.483Z,68.73
2018-06-24T01:42:54.392Z,69.34
2018-06-24T01:45:23.281Z,69.44
2018-06-24T01:47:54.877Z,69.94
2018-06-24T01:50:23.786Z,70.00
2018-06-24T01:52:52.759Z,70.38
2018-06-24T01:55:21.723Z,70.34
2018-06-24T01:57:50.603Z,70.37
2018-06-24T02:00:19.541Z,70.67
2018-06-24T02:02:48.540Z,70.82
2018-06-24T02:05:20.264Z,70.28
2018-06-24T02:07:49.188Z,69.96
2018-06-24T02:10:18.132Z,71.06
2018-06-24T02:12:49.730Z,70.07
2018-06-24T02:15:18.607Z,70.39
2018-06-24T02:17:47.551Z,69.84
2018-06-24T02:20:16.471Z,69.79
2018-06-24T02:22:45.424Z,70.24
2018-06-24T02:25:14.352Z,70.57
2018-06-24T02:27:43.277Z,70.84
2018-06-24T02:30:12.220Z,71.27
2018-06-24T02:32:41.099Z,71.48
2018-06-24T02:35:09.994Z,71.96
2018-06-24T02:37:38.886Z,71.86
2018-06-24T02:40:07.807Z,71.94
2018-06-24T02:42:36.730Z,71.76
2018-06-24T02:45:07.978Z,71.68
2018-06-24T02:47:54.701Z,71.53
2018-06-24T02:50:23.605Z,71.71
2018-06-24T02:52:52.490Z,71.70
2018-06-24T02:55:21.407Z,71.56
2018-06-24T02:57:50.425Z,71.37
2018-06-24T03:00:19.339Z,71.35
2018-06-24T03:02:48.251Z,71.58
2018-06-24T03:05:17.159Z,71.85
2018-06-24T03:07:46.059Z,72.03
2018-06-24T03:10:18.194Z,72.55
2018-06-24T03:12:47.014Z,72.87
2018-06-24T03:15:15.892Z,72.98
2018-06-24T03:17:44.793Z,72.93
2018-06-24T03:20:13.658Z,72.67
2018-06-24T03:22:42.573Z,72.69
2018-06-24T03:25:11.560Z,72.80
2018-06-24T03:27:40.515Z,72.72
2018-06-24T03:30:09.327Z,72.71
2018-06-24T03:32:45.910Z,72.55
2018-06-24T03:35:14.801Z,72.20
2018-06-24T03:37:43.737Z,71.56
2018-06-24T03:40:12.620Z,71.16
2018-06-24T03:42:41.545Z,70.98
2018-06-24T03:45:10.419Z,71.02
2018-06-24T03:47:39.268Z,71.17
2018-06-24T03:50:08.265Z,70.96
2018-06-24T03:52:37.200Z,71.42
2018-06-24T03:55:06.309Z,71.81
2018-06-24T03:57:35.202Z,71.76
2018-06-24T04:00:04.595Z,71.97
2018-06-24T04:02:33.513Z,71.47
2018-06-24T04:05:02.386Z,72.00
2018-06-24T04:07:31.328Z,71.94
2018-06-24T04:10:00.188Z,70.43
2018-06-24T04:12:29.067Z,69.66
2018-06-24T04:14:57.961Z,70.46
2018-06-24T04:17:35.346Z,70.19
2018-06-24T04:20:04.300Z,70.26
2018-06-24T04:22:33.201Z,70.24
2018-06-24T04:25:02.073Z,70.04
2018-06-24T04:27:30.973Z,70.12
2018-06-24T04:29:59.909Z,69.84
2018-06-24T04:32:28.823Z,69.66
2018-06-24T04:34:57.676Z,69.62
2018-06-24T04:37:26.533Z,69.69
2018-06-24T04:39:58.322Z,69.88
2018-06-24T04:42:27.166Z,69.88
2018-06-24T04:44:56.182Z,69.60
2018-06-24T04:47:25.212Z,69.60
2018-06-24T04:49:54.100Z,69.16
2018-06-24T04:52:23.251Z,68.59
2018-06-24T04:54:52.122Z,68.46
2018-06-24T04:57:21.097Z,68.40
2018-06-24T04:59:50.035Z,68.41
2018-06-24T05:02:18.967Z,68.31
2018-06-24T05:04:47.898Z,68.14
2018-06-24T05:07:16.794Z,67.53
2018-06-24T05:09:45.763Z,67.38
2018-06-24T05:12:14.718Z,67.60
2018-06-24T05:14:43.609Z,67.56
2018-06-24T05:17:12.565Z,67.35
2018-06-24T05:19:41.419Z,66.63
2018-06-24T05:22:10.301Z,66.81
2018-06-24T05:28:19.854Z,66.24
2018-06-24T05:30:48.826Z,66.15
2018-06-24T05:33:17.739Z,65.97
2018-06-24T05:35:46.776Z,65.68
2018-06-24T05:38:15.701Z,65.63
2018-06-24T05:40:44.561Z,65.21
2018-06-24T05:43:13.508Z,65.17
2018-06-24T05:45:42.390Z,63.64
2018-06-24T05:48:11.282Z,64.05
2018-06-24T05:50:40.248Z,64.23
2018-06-24T05:53:09.148Z,63.14
2018-06-24T05:55:38.058Z,63.58
2018-06-24T05:58:06.936Z,63.67
2018-06-24T06:00:35.858Z,63.43
2018-06-24T06:03:04.814Z,62.58
2018-06-24T06:05:33.645Z,62.57
2018-06-24T06:08:02.536Z,62.70
2018-06-24T06:10:38.885Z,62.12
2018-06-24T06:13:07.815Z,61.59
2018-06-24T06:15:36.700Z,61.48
2018-06-24T06:18:05.592Z,61.03
2018-06-24T06:20:34.455Z,59.63
2018-06-24T06:23:03.461Z,59.00
2018-06-24T06:25:32.309Z,59.38
2018-06-24T06:28:01.214Z,59.40
2018-06-24T06:30:30.112Z,59.26
2018-06-24T06:32:59.006Z,58.95
2018-06-24T06:35:27.961Z,57.43
2018-06-24T06:37:56.779Z,56.03
2018-06-24T06:40:25.692Z,56.33
2018-06-24T06:42:54.575Z,55.89
2018-06-24T06:45:23.652Z,55.55
2018-06-24T06:47:52.384Z,55.22
2018-06-24T06:50:21.242Z,56.01
2018-06-24T06:52:50.109Z,55.95
2018-06-24T06:55:22.268Z,55.53
2018-06-24T06:57:51.099Z,55.60
2018-06-24T07:00:19.962Z,55.70
2018-06-24T07:02:48.859Z,55.78
2018-06-24T07:05:17.852Z,56.28
2018-06-24T07:07:46.648Z,56.24
2018-06-24T07:10:15.529Z,56.02
2018-06-24T07:12:44.444Z,55.02
2018-06-24T07:15:13.317Z,54.83
2018-06-24T07:17:42.206Z,55.09
2018-06-24T07:20:11.103Z,53.21
2018-06-24T07:22:39.976Z,51.77
2018-06-24T07:25:08.836Z,52.81
2018-06-24T07:27:37.728Z,51.37
2018-06-24T07:30:06.559Z,52.20
2018-06-24T07:32:35.676Z,51.67
2018-06-24T07:35:04.540Z,51.84
2018-06-24T07:37:33.604Z,51.65
2018-06-24T07:40:02.457Z,52.22
2018-06-24T07:42:31.325Z,52.04
2018-06-24T07:45:00.369Z,51.76
2018-06-24T07:47:29.249Z,52.16
2018-06-24T07:49:58.110Z,52.05
2018-06-24T07:52:26.986Z,51.94
2018-06-24T07:54:55.841Z,52.32
2018-06-24T07:57:24.730Z,52.41
2018-06-24T07:59:53.579Z,52.48
2018-06-24T08:02:22.471Z,52.47
2018-06-24T08:04:51.398Z,52.52
2018-06-24T08:07:20.240Z,52.31
2018-06-24T08:09:49.144Z,51.83
2018-06-24T08:12:18.024Z,51.74
2018-06-24T08:14:46.946Z,51.56
2018-06-24T08:17:15.857Z,51.91
2018-06-24T08:19:47.520Z,51.55
2018-06-24T08:22:16.371Z,51.41
2018-06-24T08:24:45.256Z,50.56
2018-06-24T08:27:14.345Z,51.16
2018-06-24T08:29:43.265Z,49.50
2018-06-24T08:32:12.159Z,48.78
2018-06-24T08:34:41.071Z,48.59
2018-06-24T08:37:10.050Z,48.24
2018-06-24T08:39:40.837Z,47.50
2018-06-24T08:42:09.729Z,48.04
2018-06-24T08:44:38.612Z,48.20
2018-06-24T08:47:07.467Z,47.46
2018-06-24T08:49:36.334Z,46.59
2018-06-24T08:52:05.398Z,47.82
2018-06-24T08:54:34.281Z,48.13
2018-06-24T08:57:03.219Z,47.79
2018-06-24T08:59:32.080Z,47.79
2018-06-24T09:02:01.012Z,47.56
2018-06-24T09:04:29.885Z,47.71
2018-06-24T09:06:58.745Z,46.60
2018-06-24T09:09:27.644Z,47.29
2018-06-24T09:11:56.534Z,48.16
2018-06-24T09:14:25.425Z,47.74
2018-06-24T09:16:54.364Z,47.09
2018-06-24T09:19:23.190Z,46.54
2018-06-24T09:21:52.094Z,46.66
2018-06-24T09:24:21.094Z,47.22
2018-06-24T09:26:50.190Z,48.16
2018-06-24T09:29:19.059Z,48.72
2018-06-24T09:31:47.893Z,49.58
2018-06-24T09:34:16.767Z,50.24
2018-06-24T09:36:45.685Z,50.97
2018-06-24T09:39:14.572Z,51.83
2018-06-24T09:41:43.426Z,52.45
2018-06-24T09:44:12.293Z,53.05
2018-06-24T09:46:41.215Z,53.00
2018-06-24T09:49:10.082Z,52.89
2018-06-24T09:51:38.972Z,52.10
2018-06-24T09:54:07.889Z,50.83
2018-06-24T09:56:36.869Z,50.30
2018-06-24T09:59:05.808Z,50.58
2018-06-24T10:01:34.707Z,50.85
2018-06-24T10:04:03.554Z,51.00
2018-06-24T10:06:32.456Z,51.30
2018-06-24T10:09:56.019Z,51.59
2018-06-24T10:12:27.193Z,52.71
2018-06-24T10:14:56.049Z,52.75
2018-06-24T10:17:24.968Z,52.41
2018-06-24T10:19:53.827Z,52.62
2018-06-24T10:22:22.724Z,52.44
2018-06-24T10:24:51.631Z,52.37
2018-06-24T10:27:23.559Z,52.41
2018-06-24T10:29:52.444Z,52.52
2018-06-24T10:32:21.275Z,52.68
2018-06-24T10:34:50.261Z,52.12
2018-06-24T10:37:19.141Z,51.62
2018-06-24T10:39:48.011Z,50.94
2018-06-24T10:42:16.902Z,50.64
2018-06-24T10:44:45.731Z,50.56
2018-06-24T10:47:14.652Z,50.70
2018-06-24T10:49:43.500Z,49.89
2018-06-24T10:52:13.524Z,50.23
2018-06-24T10:54:42.395Z,50.13
2018-06-24T10:57:11.270Z,49.80
2018-06-24T10:59:40.187Z,49.09
2018-06-24T11:02:09.180Z,49.73
2018-06-24T11:04:37.947Z,49.16
2018-06-24T11:07:06.904Z,48.64
2018-06-24T11:09:35.834Z,48.96
2018-06-24T11:12:04.920Z,49.11
2018-06-24T11:14:42.431Z,48.33
2018-06-24T11:17:11.589Z,48.23
2018-06-24T11:19:40.461Z,48.41
2018-06-24T11:22:09.391Z,48.38
2018-06-24T11:24:38.204Z,48.93
2018-06-24T11:27:07.134Z,48.73
2018-06-24T11:29:36.039Z,48.91
2018-06-24T11:32:04.942Z,48.82
2018-06-24T11:34:38.958Z,49.50
2018-06-24T11:37:02.860Z,49.21
2018-06-24T11:39:31.644Z,49.25
2018-06-24T11:42:00.558Z,49.43
2018-06-24T11:44:29.531Z,49.45
2018-06-24T11:46:58.498Z,49.63
2018-06-24T11:49:27.396Z,49.57
2018-06-24T11:51:56.240Z,49.91
2018-06-24T11:54:25.271Z,50.20
2018-06-24T11:56:55.669Z,49.98
2018-06-24T11:59:24.555Z,49.30
2018-06-24T12:01:53.479Z,48.29
2018-06-24T12:04:22.432Z,48.38
2018-06-24T12:06:51.359Z,48.98
2018-06-24T12:09:20.269Z,48.85
2018-06-24T12:11:49.263Z,47.86
2018-06-24T12:14:20.693Z,48.09
2018-06-24T12:16:51.367Z,48.02
2018-06-24T12:19:18.544Z,48.13
2018-06-24T12:21:50.552Z,47.72
2018-06-24T12:24:19.605Z,47.18
2018-06-24T12:26:48.538Z,46.26
2018-06-24T12:29:17.508Z,46.83
2018-06-24T12:31:46.327Z,47.00
2018-06-24T12:34:15.262Z,46.83
2018-06-24T12:36:44.211Z,45.66
2018-06-24T12:39:20.557Z,44.89
2018-06-24T12:41:49.405Z,44.35
2018-06-24T12:44:18.327Z,43.34
2018-06-24T12:46:47.189Z,44.16
2018-06-24T12:49:16.139Z,43.45
2018-06-24T12:51:45.151Z,43.43
2018-06-24T12:54:14.039Z,43.96
2018-06-24T12:56:42.907Z,45.06
2018-06-24T12:59:12.101Z,44.48
2018-06-24T13:01:46.877Z,45.16
2018-06-24T13:04:15.741Z,45.93
2018-06-24T13:06:44.726Z,45.90
2018-06-24T13:09:13.623Z,46.67
2018-06-24T13:11:42.721Z,47.20
2018-06-24T13:14:11.462Z,47.29
2018-06-24T13:16:40.450Z,47.68
2018-06-24T13:19:09.367Z,48.24
2018-06-24T13:21:38.316Z,48.91
2018-06-24T13:24:07.534Z,48.94
2018-06-24T13:26:36.400Z,49.59
2018-06-24T13:29:05.485Z,50.25
2018-06-24T13:31:34.405Z,50.75
2018-06-24T13:34:06.297Z,51.14
2018-06-24T13:36:32.327Z,51.62
2018-06-24T13:39:03.692Z,52.19
2018-06-24T13:41:30.485Z,52.59
2018-06-24T13:43:59.333Z,52.65
2018-06-24T13:46:28.280Z,52.58
2018-06-24T13:48:57.186Z,52.36
2018-06-24T13:51:26.188Z,51.49
2018-06-24T13:53:55.142Z,51.09
2018-06-24T13:56:24.414Z,51.34
2018-06-24T13:58:53.411Z,51.82
2018-06-24T14:01:22.299Z,52.42
2018-06-24T14:03:51.263Z,52.85
2018-06-24T14:06:20.214Z,53.04
2018-06-24T14:08:51.772Z,53.07
2018-06-24T14:11:20.767Z,53.00
2018-06-24T14:13:49.650Z,53.23
2018-06-24T14:16:18.558Z,52.88
2018-06-24T14:18:47.533Z,52.76
2018-06-24T14:21:16.445Z,52.05
2018-06-24T14:23:45.330Z,51.42
2018-06-24T14:26:14.295Z,50.79
2018-06-24T14:28:43.119Z,50.22
2018-06-24T14:31:12.132Z,50.21
2018-06-24T14:33:41.038Z,50.69
2018-06-24T14:36:09.970Z,51.56
2018-06-24T14:38:39.092Z,51.86
2018-06-24T14:41:07.963Z,51.97
2018-06-24T14:43:36.946Z,52.39
2018-06-24T14:46:06.032Z,51.73
2018-06-24T14:48:35.019Z,51.45
2018-06-24T14:52:00.641Z,52.14
2018-06-24T14:54:28.028Z,52.27
2018-06-24T14:56:56.974Z,52.01
2018-06-24T14:59:26.159Z,51.63
2018-06-24T15:01:55.023Z,51.89
2018-06-24T15:04:23.963Z,52.53
2018-06-24T15:06:52.892Z,53.30
2018-06-24T15:09:22.492Z,53.65
2018-06-24T15:11:51.507Z,54.08
2018-06-24T15:14:23.725Z,53.60
2018-06-24T15:16:52.719Z,53.68
2018-06-24T15:19:21.722Z,53.84
2018-06-24T15:21:50.612Z,54.30
2018-06-24T15:24:19.505Z,54.30
2018-06-24T15:26:48.403Z,54.56
2018-06-24T15:29:17.300Z,55.19
2018-06-24T15:31:46.237Z,55.42
2018-06-24T15:34:15.226Z,55.55
2018-06-24T15:36:51.505Z,56.13
2018-06-24T15:39:20.437Z,55.86
2018-06-24T15:41:49.322Z,56.16
2018-06-24T15:44:18.260Z,56.21
2018-06-24T15:46:47.224Z,56.28
2018-06-24T15:49:16.194Z,56.61
2018-06-24T15:51:45.256Z,56.62
2018-06-24T15:54:14.126Z,56.52
2018-06-24T15:56:43.077Z,56.44
2018-06-24T15:59:12.320Z,55.82
2018-06-24T16:01:41.276Z,55.65
2018-06-24T16:04:10.184Z,55.49
2018-06-24T16:06:39.052Z,55.00
2018-06-24T16:09:10.326Z,54.82
2018-06-24T16:11:39.329Z,54.69
2018-06-24T16:14:08.181Z,54.32
2018-06-24T16:16:37.780Z,53.85
2018-06-24T16:19:07.498Z,54.15
2018-06-24T16:21:36.539Z,54.24
2018-06-24T16:24:05.423Z,54.67
2018-06-24T16:26:34.417Z,54.71
2018-06-24T16:29:03.307Z,56.24
2018-06-24T16:31:32.223Z,57.84
2018-06-24T16:34:01.156Z,59.13
2018-06-24T16:36:30.032Z,60.42
2018-06-24T16:38:58.918Z,60.79
2018-06-24T16:41:30.903Z,61.08
2018-06-24T16:43:59.817Z,61.85
2018-06-24T16:46:28.685Z,61.60
2018-06-24T16:49:00.315Z,61.72
2018-06-24T16:51:29.274Z,61.45
2018-06-24T16:53:58.147Z,61.84
2018-06-24T16:56:27.016Z,62.21
2018-06-24T16:59:03.210Z,62.77
2018-06-24T17:01:32.322Z,63.09
2018-06-24T17:04:01.230Z,63.10
2018-06-24T17:06:30.162Z,63.46
2018-06-24T17:08:59.122Z,63.56
2018-06-24T17:11:28.002Z,63.91
2018-06-24T17:13:56.915Z,65.13
2018-06-24T17:16:25.888Z,65.88
2018-06-24T17:18:54.890Z,66.61
2018-06-24T17:21:23.710Z,66.91
2018-06-24T17:23:55.781Z,66.57
2018-06-24T17:26:26.085Z,66.24
2018-06-24T17:28:58.561Z,66.18
2018-06-24T17:31:27.462Z,65.80
2018-06-24T17:33:56.724Z,65.99
2018-06-24T17:36:25.633Z,65.93
2018-06-24T17:38:54.523Z,65.78
2018-06-24T17:41:25.628Z,65.40
2018-06-24T17:43:52.302Z,65.88
2018-06-24T17:46:21.274Z,66.64
2018-06-24T17:48:50.202Z,66.57
2018-06-24T17:51:19.125Z,67.23
2018-06-24T17:53:47.995Z,67.15
2018-06-24T17:56:16.901Z,68.00
2018-06-24T17:58:45.817Z,68.54
2018-06-24T18:01:14.711Z,68.44
2018-06-24T18:03:43.542Z,68.70
2018-06-24T18:06:12.743Z,68.80
2018-06-24T18:08:44.182Z,68.85
2018-06-24T18:11:13.226Z,69.15
2018-06-24T18:13:42.156Z,69.11
2018-06-24T18:16:11.139Z,69.57
2018-06-24T18:18:39.935Z,69.65
2018-06-24T18:21:08.911Z,70.16
2018-06-24T18:23:37.797Z,70.21
2018-06-24T18:26:06.690Z,70.80
2018-06-24T18:28:38.002Z,70.99
2018-06-24T18:31:08.624Z,71.65
2018-06-24T18:33:37.670Z,71.52
2018-06-24T18:36:06.635Z,72.07
2018-06-24T18:38:35.569Z,72.45
2018-06-24T18:41:04.557Z,72.19
2018-06-24T18:43:33.408Z,72.27
2018-06-24T18:46:02.351Z,72.99
2018-06-24T18:48:31.408Z,73.29
2018-06-24T18:51:00.318Z,73.69
2018-06-24T18:53:29.275Z,73.67
2018-06-24T18:55:58.239Z,73.33
2018-06-24T18:58:27.103Z,73.17
2018-06-24T19:00:56.084Z,73.42
2018-06-24T19:03:25.031Z,73.34
2018-06-24T19:05:53.889Z,72.83
2018-06-24T19:08:25.720Z,73.06
2018-06-24T19:10:54.618Z,73.28
2018-06-24T19:13:23.543Z,72.43
2018-06-24T19:15:52.490Z,71.95
2018-06-24T19:18:21.451Z,72.77
2018-06-24T19:20:50.351Z,71.88
2018-06-24T19:23:19.251Z,72.51
2018-06-24T19:25:48.194Z,72.44
2018-06-24T19:28:16.984Z,72.06
2018-06-24T19:30:52.160Z,72.61
2018-06-24T19:33:23.483Z,72.47
2018-06-24T19:35:52.389Z,72.51
2018-06-24T19:38:21.203Z,72.81
2018-06-24T19:40:50.052Z,73.44
2018-06-24T19:43:18.912Z,73.25
2018-06-24T19:45:47.807Z,73.13
2018-06-24T19:48:16.663Z,73.39
2018-06-24T19:50:45.820Z,72.98
2018-06-24T19:53:14.638Z,73.21
2018-06-24T19:55:43.541Z,73.08
2018-06-24T19:58:12.431Z,73.28
2018-06-24T20:00:41.371Z,73.70
2018-06-24T20:03:10.405Z,73.54
2018-06-24T20:05:39.245Z,73.63
2018-06-24T20:08:08.136Z,74.02
2018-06-24T20:10:36.999Z,74.29
2018-06-24T20:13:06.050Z,74.57
2018-06-24T20:15:34.964Z,74.89
2018-06-24T20:18:03.887Z,75.19
2018-06-24T20:20:32.758Z,75.00
2018-06-24T20:23:01.657Z,74.80
2018-06-24T20:25:30.549Z,75.02
2018-06-24T20:27:59.432Z,75.30
2018-06-24T20:30:28.351Z,75.64
2018-06-24T20:32:57.205Z,75.01
2018-06-24T20:35:43.684Z,75.01
2018-06-24T20:38:14.285Z,75.06
2018-06-24T20:40:43.294Z,75.27
2018-06-24T20:43:12.184Z,75.17
2018-06-24T20:45:41.117Z,74.12
2018-06-24T20:48:09.993Z,75.00
2018-06-24T20:50:38.913Z,75.03
2018-06-24T20:53:07.823Z,74.95
2018-06-24T20:55:36.797Z,74.69
2018-06-24T20:58:05.765Z,74.73
2018-06-24T21:00:34.706Z,74.70
2018-06-24T21:03:03.593Z,74.60
2018-06-24T21:05:32.478Z,74.66
2018-06-24T21:08:01.382Z,74.80
2018-06-24T21:10:30.273Z,74.78
2018-06-24T21:12:59.416Z,74.52
2018-06-24T21:15:28.328Z,75.04
2018-06-24T21:18:00.512Z,75.07
2018-06-24T21:20:29.473Z,75.32
2018-06-24T21:22:58.427Z,75.07
2018-06-24T21:25:27.313Z,74.99
2018-06-24T21:27:56.261Z,75.10
2018-06-24T21:30:25.299Z,74.93
2018-06-24T21:32:54.212Z,74.65
2018-06-24T21:35:23.081Z,74.49
2018-06-24T21:37:52.006Z,74.77
2018-06-24T21:40:20.961Z,74.50
2018-06-24T21:42:49.853Z,74.19
2018-06-24T21:45:18.994Z,74.55
2018-06-24T21:47:47.911Z,74.61
2018-06-24T21:50:16.803Z,74.78
2018-06-24T21:52:45.806Z,74.71
2018-06-24T21:55:14.835Z,74.71
2018-06-24T21:57:43.572Z,74.64
2018-06-24T22:00:12.591Z,74.29
2018-06-24T22:02:47.399Z,74.52
2018-06-24T22:05:18.378Z,74.73
2018-06-24T22:07:45.188Z,74.72
2018-06-24T22:10:14.153Z,74.94
2018-06-24T22:12:43.102Z,73.82
2018-06-24T22:15:11.966Z,74.72
2018-06-24T22:17:40.867Z,74.39
2018-06-24T22:20:12.813Z,74.15
2018-06-24T22:22:43.787Z,74.00
2018-06-24T22:25:12.761Z,73.44
2018-06-24T22:27:41.712Z,74.31
2018-06-24T22:30:10.616Z,74.39
2018-06-24T22:32:39.661Z,74.60
2018-06-24T22:35:08.551Z,74.66
2018-06-24T22:37:37.481Z,74.74
2018-06-24T22:40:06.414Z,74.55
2018-06-24T22:42:35.323Z,74.73
2018-06-24T22:45:04.335Z,75.02
2018-06-24T22:47:33.374Z,74.67
2018-06-24T22:50:02.308Z,74.96
2018-06-24T22:52:31.247Z,73.93
2018-06-24T22:55:00.234Z,74.83
2018-06-24T22:57:29.182Z,73.69
2018-06-24T23:00:16.172Z,74.09
2018-06-24T23:02:45.696Z,74.43
2018-06-24T23:05:20.524Z,74.24
2018-06-24T23:07:49.504Z,74.64
2018-06-24T23:10:18.470Z,74.49
2018-06-24T23:12:47.321Z,74.56
2018-06-24T23:15:16.214Z,74.18
2018-06-24T23:17:45.148Z,74.81
2018-06-24T23:20:14.095Z,75.21
2018-06-24T23:22:42.985Z,75.13
2018-06-24T23:25:11.940Z,74.93
2018-06-24T23:27:46.995Z,74.87
2018-06-24T23:30:15.944Z,75.15
2018-06-24T23:32:44.831Z,75.42
2018-06-24T23:35:13.821Z,74.93
2018-06-24T23:37:42.736Z,75.13
2018-06-24T23:40:11.747Z,75.52
2018-06-24T23:42:40.691Z,74.34
2018-06-24T23:45:09.587Z,74.89
2018-06-24T23:47:38.468Z,74.89
2018-06-24T23:50:07.334Z,74.99
2018-06-24T23:52:36.290Z,74.58
2018-06-24T23:55:05.682Z,74.72
2018-06-24T23:57:34.622Z,73.88
